Wetterstation Vordersexau
Wetterdaten: Woche 21.10.13 - 27.10.13 (KW43)
Datum Zeit Temp. A. Feuchte A. Luftdruck Regen Wind Richtung Taupunkt Windchill Windben
21.10.2013 00:00 10,7 C 69 % 1016,6 hPa 0,0 l/m 0,0 km/h O-NO 5,2 C 10,7 C 0,0 km/h
21.10.2013 01:00 11,3 C 66 % 1016,7 hPa 0,0 l/m 0,0 km/h S-SO 5,2 C 11,3 C 0,0 km/h
21.10.2013 02:00 10,7 C 66 % 1016,2 hPa 0,0 l/m 0,0 km/h O-NO 4,6 C 10,7 C 0,0 km/h
21.10.2013 03:00 10,4 C 65 % 1016,3 hPa 0,0 l/m 0,0 km/h NO 4,1 C 10,4 C 0,0 km/h
21.10.2013 04:00 10,1 C 65 % 1015,8 hPa 0,0 l/m 0,0 km/h SO 3,8 C 10,1 C 0,0 km/h
21.10.2013 05:00 9,8 C 64 % 1016,0 hPa 0,0 l/m 0,0 km/h SO 3,3 C 9,8 C 0,0 km/h
21.10.2013 06:00 9,9 C 63 % 1015,9 hPa 0,0 l/m 0,0 km/h SO 3,2 C 9,9 C 0,0 km/h
21.10.2013 07:00 9,6 C 63 % 1015,7 hPa 0,0 l/m 1,9 km/h SO 2,9 C 9,6 C 1,1 km/h
21.10.2013 08:00 9,9 C 62 % 1016,0 hPa 0,0 l/m 0,0 km/h S-SO 3,0 C 9,9 C 0,0 km/h
21.10.2013 09:00 12,0 C 58 % 1016,3 hPa 0,0 l/m 3,9 km/h S-SO 4,0 C 12,0 C 2,2 km/h
21.10.2013 10:00 13,9 C 57 % 1015,9 hPa 0,0 l/m 1,9 km/h S-SO 5,5 C 13,9 C 1,1 km/h
21.10.2013 11:00 17,9 C 71 % 1016,2 hPa 0,0 l/m 0,0 km/h W-SW 12,6 C 17,9 C 0,0 km/h
21.10.2013 12:00 21,3 C 77 % 1015,9 hPa 0,0 l/m 0,0 km/h W-SW 17,1 C 21,3 C 0,0 km/h
21.10.2013 13:00 19,2 C 80 % 1015,6 hPa 0,0 l/m 0,0 km/h W 15,7 C 19,2 C 0,0 km/h
21.10.2013 14:00 19,0 C 80 % 1015,3 hPa 0,0 l/m 0,0 km/h W-NW 15,5 C 19,0 C 0,0 km/h
21.10.2013 15:00 19,6 C 78 % 1014,6 hPa 0,0 l/m 0,0 km/h NW 15,7 C 19,6 C 0,0 km/h
21.10.2013 16:00 23,5 C 71 % 1014,2 hPa 0,0 l/m 0,0 km/h NW 17,9 C 23,5 C 0,0 km/h
21.10.2013 17:00 19,8 C 77 % 1013,6 hPa 0,0 l/m 0,0 km/h N-NO 15,6 C 19,8 C 0,0 km/h
21.10.2013 18:00 16,6 C 83 % 1013,7 hPa 0,0 l/m 0,0 km/h N-NO 13,7 C 16,6 C 0,0 km/h
21.10.2013 19:00 14,6 C 83 % 1013,9 hPa 0,0 l/m 0,0 km/h SO 11,7 C 14,6 C 0,0 km/h
21.10.2013 20:00 13,4 C 82 % 1013,7 hPa 0,0 l/m 0,0 km/h NO 10,4 C 13,4 C 0,0 km/h
21.10.2013 21:00 13,2 C 78 % 1013,5 hPa 0,0 l/m 0,0 km/h NO 9,4 C 13,2 C 0,0 km/h
21.10.2013 22:00 11,9 C 78 % 1013,9 hPa 0,0 l/m 31,1 km/h O-NO 8,2 C 3,1 C 17,3 km/h
21.10.2013 23:00 11,6 C 76 % 1013,7 hPa 0,0 l/m 31,1 km/h O-SO 7,5 C 2,7 C 17,3 km/h
22.10.2013 00:00 11,6 C 73 % 1013,6 hPa 0,0 l/m 0,0 km/h O-SO 6,9 C 11,6 C 0,0 km/h
22.10.2013 01:00 11,1 C 73 % 1012,9 hPa 0,0 l/m 0,0 km/h SW 6,4 C 11,1 C 0,0 km/h
22.10.2013 02:00 11,9 C 71 % 1012,5 hPa 0,0 l/m 0,0 km/h N 6,8 C 11,9 C 0,0 km/h
22.10.2013 03:00 11,9 C 69 % 1012,3 hPa 0,0 l/m 0,0 km/h O-SO 6,4 C 11,9 C 0,0 km/h
22.10.2013 04:00 11,6 C 68 % 1011,9 hPa 0,0 l/m 0,0 km/h N-NO 5,9 C 11,6 C 0,0 km/h
22.10.2013 05:00 11,4 C 67 % 1011,9 hPa 0,0 l/m 0,0 km/h N-NO 5,5 C 11,4 C 0,0 km/h
22.10.2013 06:00 11,4 C 66 % 1011,4 hPa 0,0 l/m 0,0 km/h N-NO 5,3 C 11,4 C 0,0 km/h
22.10.2013 07:00 11,4 C 65 % 1011,0 hPa 0,0 l/m 0,0 km/h SO 5,1 C 11,4 C 0,0 km/h
22.10.2013 08:00 11,5 C 64 % 1010,6 hPa 0,0 l/m 0,0 km/h O-NO 4,9 C 11,5 C 0,0 km/h
22.10.2013 09:00 12,5 C 62 % 1010,7 hPa 0,0 l/m 0,0 km/h N-NO 5,4 C 12,5 C 0,0 km/h
22.10.2013 10:00 14,1 C 57 % 1010,4 hPa 0,0 l/m 0,0 km/h W-NW 5,7 C 14,1 C 0,0 km/h
22.10.2013 11:00 16,7 C 84 % 1010,4 hPa 0,0 l/m 0,0 km/h O-NO 14,0 C 16,7 C 0,0 km/h
22.10.2013 12:00 18,9 C 80 % 1009,7 hPa 0,0 l/m 0,0 km/h SO 15,4 C 18,9 C 0,0 km/h
22.10.2013 13:00 25,1 C 59 % 1008,8 hPa 0,0 l/m 0,0 km/h W-NW 16,5 C 25,1 C 0,0 km/h
22.10.2013 14:00 25,4 C 56 % 1007,5 hPa 0,0 l/m 0,0 km/h W-NW 16,0 C 25,4 C 0,0 km/h
22.10.2013 15:00 27,1 C 51 % 1006,6 hPa 0,0 l/m 1,3 km/h N-NW 16,1 C 27,1 C 0,7 km/h
22.10.2013 16:00 27,9 C 47 % 1005,4 hPa 0,0 l/m 0,0 km/h N-NW 15,5 C 27,9 C 0,0 km/h
22.10.2013 17:00 27,8 C 48 % 1004,7 hPa 0,0 l/m 0,0 km/h NW 15,8 C 27,8 C 0,0 km/h
22.10.2013 18:00 18,9 C 69 % 1004,9 hPa 0,0 l/m 0,0 km/h N-NO 13,1 C 18,9 C 0,0 km/h
22.10.2013 19:00 14,5 C 82 % 1005,4 hPa 0,0 l/m 0,0 km/h O 11,5 C 14,5 C 0,0 km/h
22.10.2013 20:00 12,8 C 84 % 1005,5 hPa 0,0 l/m 0,0 km/h SO 10,2 C 12,8 C 0,0 km/h
22.10.2013 21:00 12,3 C 83 % 1005,3 hPa 0,0 l/m 0,0 km/h SO 9,5 C 12,3 C 0,0 km/h
22.10.2013 22:00 12,6 C 80 % 1005,4 hPa 0,0 l/m 0,0 km/h S-SO 9,2 C 12,6 C 0,0 km/h
22.10.2013 23:00 11,8 C 80 % 1005,8 hPa 0,0 l/m 6,5 km/h N-NO 8,5 C 11,8 C 3,6 km/h
23.10.2013 00:00 11,2 C 79 % 1006,2 hPa 0,0 l/m 0,0 km/h N-NO 7,7 C 11,2 C 0,0 km/h
23.10.2013 01:00 11,3 C 77 % 1005,7 hPa 0,0 l/m 0,0 km/h O-SO 7,4 C 11,3 C 0,0 km/h
23.10.2013 02:00 10,9 C 76 % 1006,4 hPa 0,0 l/m 0,0 km/h SO 6,8 C 10,9 C 0,0 km/h
23.10.2013 03:00 11,5 C 73 % 1006,5 hPa 0,0 l/m 0,0 km/h O 6,8 C 11,5 C 0,0 km/h
23.10.2013 04:00 12,5 C 74 % 1006,4 hPa 0,0 l/m 0,0 km/h SO 8,0 C 12,5 C 0,0 km/h
23.10.2013 05:00 12,5 C 77 % 1006,3 hPa 0,0 l/m 0,0 km/h SO 8,6 C 12,5 C 0,0 km/h
23.10.2013 06:00 12,8 C 79 % 1006,2 hPa 0,0 l/m 0,0 km/h SO 9,2 C 12,8 C 0,0 km/h
23.10.2013 07:00 12,8 C 79 % 1006,9 hPa 0,0 l/m 0,0 km/h S 9,2 C 12,8 C 0,0 km/h
23.10.2013 08:00 14,6 C 84 % 1007,4 hPa 0,5 l/m 0,0 km/h SO 11,9 C 14,6 C 0,0 km/h
23.10.2013 09:00 14,1 C 83 % 1008,5 hPa 0,5 l/m 0,0 km/h SW 11,3 C 14,1 C 0,0 km/h
23.10.2013 10:00 15,3 C 84 % 1010,0 hPa 0,5 l/m 1,9 km/h S 12,6 C 15,3 C 1,1 km/h
23.10.2013 11:00 14,3 C 84 % 1010,6 hPa 0,5 l/m 1,3 km/h SW 11,6 C 14,3 C 0,7 km/h
23.10.2013 12:00 14,3 C 83 % 1011,5 hPa 1,0 l/m 0,0 km/h SO 11,5 C 14,3 C 0,0 km/h
23.10.2013 13:00 15,2 C 83 % 1011,3 hPa 0,0 l/m 3,2 km/h S 12,3 C 15,2 C 1,8 km/h
23.10.2013 14:00 15,8 C 80 % 1011,2 hPa 0,0 l/m 0,0 km/h SO 12,4 C 15,8 C 0,0 km/h
23.10.2013 15:00 13,4 C 83 % 1011,2 hPa 1,0 l/m 0,6 km/h N 10,6 C 13,4 C 0,4 km/h
23.10.2013 16:00 14,2 C 84 % 1010,5 hPa 0,0 l/m 0,0 km/h NO 11,5 C 14,2 C 0,0 km/h
23.10.2013 17:00 13,6 C 84 % 1010,6 hPa 0,0 l/m 0,0 km/h O 10,9 C 13,6 C 0,0 km/h
23.10.2013 18:00 13,0 C 84 % 1011,1 hPa 0,0 l/m 0,0 km/h O-SO 10,4 C 13,0 C 0,0 km/h
23.10.2013 19:00 11,4 C 81 % 1011,9 hPa 0,0 l/m 28,5 km/h O-SO 8,3 C 2,9 C 15,8 km/h
23.10.2013 20:00 11,1 C 79 % 1012,3 hPa 0,0 l/m 28,5 km/h SO 7,6 C 2,5 C 15,8 km/h
23.10.2013 21:00 10,4 C 78 % 1012,6 hPa 0,0 l/m 0,0 km/h SO 6,7 C 10,4 C 0,0 km/h
23.10.2013 22:00 10,3 C 77 % 1013,5 hPa 0,0 l/m 33,7 km/h S-SO 6,4 C 0,4 C 18,7 km/h
23.10.2013 23:00 10,9 C 74 % 1013,3 hPa 0,0 l/m 1,9 km/h SO 6,5 C 10,9 C 1,1 km/h
24.10.2013 00:00 10,6 C 72 % 1014,1 hPa 0,0 l/m 0,0 km/h SO 5,8 C 10,6 C 0,0 km/h
24.10.2013 01:00 10,9 C 70 % 1014,6 hPa 0,0 l/m 0,0 km/h SO 5,6 C 10,9 C 0,0 km/h
24.10.2013 02:00 10,6 C 70 % 1015,1 hPa 0,0 l/m 0,0 km/h O-NO 5,4 C 10,6 C 0,0 km/h
24.10.2013 03:00 10,6 C 69 % 1015,3 hPa 0,0 l/m 0,0 km/h O-SO 5,2 C 10,6 C 0,0 km/h
24.10.2013 04:00 10,9 C 67 % 1015,2 hPa 0,0 l/m 0,0 km/h SO 5,0 C 10,9 C 0,0 km/h
24.10.2013 05:00 10,6 C 66 % 1015,6 hPa 0,0 l/m 0,0 km/h SO 4,5 C 10,6 C 0,0 km/h
24.10.2013 06:00 9,3 C 69 % 1015,7 hPa 0,0 l/m 0,0 km/h S-SO 3,9 C 9,3 C 0,0 km/h
24.10.2013 07:00 8,4 C 70 % 1016,1 hPa 0,0 l/m 0,0 km/h S-SO 3,3 C 8,4 C 0,0 km/h
24.10.2013 08:00 7,9 C 70 % 1016,3 hPa 0,0 l/m 0,0 km/h SO 2,8 C 7,9 C 0,0 km/h
24.10.2013 09:00 10,1 C 66 % 1016,9 hPa 0,0 l/m 0,0 km/h S-SO 4,0 C 10,1 C 0,0 km/h
24.10.2013 10:00 17,1 C 84 % 1017,3 hPa 0,0 l/m 0,0 km/h SO 14,4 C 17,1 C 0,0 km/h
24.10.2013 11:00 20,9 C 70 % 1017,4 hPa 0,0 l/m 0,0 km/h NW 15,2 C 20,9 C 0,0 km/h
24.10.2013 12:00 24,3 C 55 % 1017,4 hPa 0,0 l/m 12,3 km/h N 14,7 C 22,9 C 6,8 km/h
24.10.2013 13:00 23,0 C 55 % 1017,0 hPa 0,0 l/m 0,0 km/h S 13,5 C 23,0 C 0,0 km/h
24.10.2013 14:00 23,9 C 53 % 1015,9 hPa 0,0 l/m 0,0 km/h W-NW 13,7 C 23,9 C 0,0 km/h
24.10.2013 15:00 25,3 C 46 % 1015,5 hPa 0,0 l/m 5,2 km/h W-NW 12,8 C 25,3 C 2,9 km/h
24.10.2013 16:00 26,9 C 43 % 1014,6 hPa 0,0 l/m 3,9 km/h NW 13,2 C 26,9 C 2,2 km/h
24.10.2013 17:00 26,1 C 44 % 1015,1 hPa 0,0 l/m 0,0 km/h NW 12,9 C 26,1 C 0,0 km/h
24.10.2013 18:00 18,4 C 59 % 1015,5 hPa 0,0 l/m 0,0 km/h N 10,2 C 18,4 C 0,0 km/h
24.10.2013 19:00 11,8 C 78 % 1015,5 hPa 0,0 l/m 0,0 km/h SO 8,1 C 11,8 C 0,0 km/h
24.10.2013 20:00 10,4 C 83 % 1015,1 hPa 0,0 l/m 0,0 km/h SO 7,6 C 10,4 C 0,0 km/h
24.10.2013 21:00 9,9 C 84 % 1014,6 hPa 0,0 l/m 0,0 km/h W-NW 7,3 C 9,9 C 0,0 km/h
24.10.2013 22:00 8,8 C 84 % 1015,2 hPa 0,0 l/m 0,0 km/h NW 6,2 C 8,8 C 0,0 km/h
24.10.2013 23:00 7,9 C 83 % 1015,3 hPa 0,0 l/m 0,0 km/h S-SO 5,2 C 7,9 C 0,0 km/h
25.10.2013 00:00 7,3 C 82 % 1014,7 hPa 0,0 l/m 0,0 km/h SO 4,4 C 7,3 C 0,0 km/h
25.10.2013 01:00 7,3 C 81 % 1014,6 hPa 0,0 l/m 0,0 km/h O-SO 4,3 C 7,3 C 0,0 km/h
25.10.2013 02:00 6,4 C 81 % 1013,9 hPa 0,0 l/m 0,0 km/h NO 3,4 C 6,4 C 0,0 km/h
25.10.2013 03:00 6,2 C 81 % 1014,5 hPa 0,0 l/m 0,0 km/h NO 3,2 C 6,2 C 0,0 km/h
25.10.2013 04:00 6,9 C 78 % 1014,8 hPa 0,0 l/m 0,0 km/h SO 3,3 C 6,9 C 0,0 km/h
25.10.2013 05:00 7,0 C 77 % 1014,3 hPa 0,0 l/m 0,0 km/h SO 3,2 C 7,0 C 0,0 km/h
25.10.2013 06:00 7,6 C 76 % 1014,2 hPa 0,0 l/m 0,0 km/h SO 3,6 C 7,6 C 0,0 km/h
25.10.2013 07:00 9,1 C 74 % 1013,7 hPa 0,0 l/m 0,0 km/h S-SO 4,7 C 9,1 C 0,0 km/h
25.10.2013 08:00 9,8 C 71 % 1013,9 hPa 0,0 l/m 7,1 km/h N 4,8 C 9,3 C 4,0 km/h
25.10.2013 09:00 10,9 C 69 % 1014,4 hPa 0,0 l/m 0,0 km/h W 5,4 C 10,9 C 0,0 km/h
25.10.2013 10:00 14,8 C 83 % 1014,7 hPa 0,0 l/m 0,0 km/h W 11,9 C 14,8 C 0,0 km/h
25.10.2013 11:00 17,2 C 75 % 1015,0 hPa 0,0 l/m 0,6 km/h W 12,7 C 17,2 C 0,4 km/h
25.10.2013 12:00 15,3 C 79 % 1014,8 hPa 0,0 l/m 0,0 km/h W 11,7 C 15,3 C 0,0 km/h
25.10.2013 13:00 18,5 C 74 % 1014,4 hPa 0,0 l/m 0,0 km/h W 13,8 C 18,5 C 0,0 km/h
25.10.2013 14:00 22,9 C 65 % 1014,1 hPa 0,0 l/m 0,0 km/h NO 16,0 C 22,9 C 0,0 km/h
25.10.2013 15:00 24,2 C 56 % 1013,7 hPa 0,0 l/m 0,0 km/h S-SO 14,9 C 24,2 C 0,0 km/h
25.10.2013 16:00 24,0 C 57 % 1013,2 hPa 0,0 l/m 1,3 km/h SO 14,9 C 24,0 C 0,7 km/h
25.10.2013 17:00 20,0 C 68 % 1012,8 hPa 0,0 l/m 0,0 km/h SO 13,9 C 20,0 C 0,0 km/h
25.10.2013 18:00 15,6 C 76 % 1012,4 hPa 0,0 l/m 0,0 km/h S-SO 11,4 C 15,6 C 0,0 km/h
25.10.2013 19:00 13,9 C 82 % 1012,5 hPa 0,0 l/m 0,0 km/h O 10,9 C 13,9 C 0,0 km/h
25.10.2013 20:00 12,8 C 84 % 1013,1 hPa 0,0 l/m 0,0 km/h NO 10,2 C 12,8 C 0,0 km/h
25.10.2013 21:00 11,6 C 84 % 1013,9 hPa 0,0 l/m 0,0 km/h S-SO 9,0 C 11,6 C 0,0 km/h
25.10.2013 22:00 11,8 C 82 % 1013,9 hPa 0,0 l/m 0,0 km/h O-SO 8,8 C 11,8 C 0,0 km/h
25.10.2013 23:00 12,7 C 83 % 1013,7 hPa 0,0 l/m 0,0 km/h SO 9,9 C 12,7 C 0,0 km/h
26.10.2013 00:00 12,3 C 84 % 1013,8 hPa 0,0 l/m 0,0 km/h SO 9,7 C 12,3 C 0,0 km/h
26.10.2013 01:00 10,9 C 84 % 1014,3 hPa 0,0 l/m 0,0 km/h O-SO 8,3 C 10,9 C 0,0 km/h
26.10.2013 02:00 9,8 C 83 % 1014,3 hPa 0,0 l/m 0,0 km/h S-SO 7,1 C 9,8 C 0,0 km/h
26.10.2013 03:00 10,8 C 81 % 1014,5 hPa 0,0 l/m 7,1 km/h SO 7,7 C 10,3 C 4,0 km/h
26.10.2013 04:00 10,2 C 82 % 1014,6 hPa 0,0 l/m 6,5 km/h SO 7,3 C 10,2 C 3,6 km/h
26.10.2013 05:00 10,5 C 79 % 1014,4 hPa 0,0 l/m 9,1 km/h S-SO 7,0 C 8,7 C 5,0 km/h
26.10.2013 06:00 9,9 C 80 % 1014,4 hPa 0,0 l/m 1,3 km/h SO 6,6 C 9,9 C 0,7 km/h
26.10.2013 07:00 10,2 C 76 % 1014,5 hPa 0,0 l/m 1,3 km/h SO 6,2 C 10,2 C 0,7 km/h
26.10.2013 08:00 10,4 C 75 % 1014,8 hPa 0,0 l/m 1,3 km/h O-NO 6,2 C 10,4 C 0,7 km/h
26.10.2013 09:00 14,0 C 75 % 1015,9 hPa 0,0 l/m 0,0 km/h O-NO 9,6 C 14,0 C 0,0 km/h
26.10.2013 10:00 17,1 C 81 % 1015,8 hPa 0,0 l/m 0,0 km/h SW 13,8 C 17,1 C 0,0 km/h
26.10.2013 11:00 24,0 C 56 % 1015,7 hPa 0,0 l/m 12,3 km/h W-NW 14,7 C 22,6 C 6,8 km/h
26.10.2013 12:00 26,1 C 50 % 1015,8 hPa 0,0 l/m 3,9 km/h W-SW 14,8 C 26,1 C 2,2 km/h
26.10.2013 13:00 25,9 C 47 % 1014,8 hPa 0,0 l/m 19,4 km/h W 13,7 C 23,9 C 10,8 km/h
26.10.2013 14:00 26,1 C 47 % 1014,4 hPa 0,0 l/m 7,1 km/h NW 13,9 C 25,9 C 4,0 km/h
26.10.2013 15:00 26,3 C 48 % 1014,1 hPa 0,0 l/m 1,3 km/h SW 14,4 C 26,3 C 0,7 km/h
26.10.2013 16:00 26,9 C 45 % 1013,8 hPa 0,0 l/m 6,5 km/h S-SO 13,9 C 26,9 C 3,6 km/h
26.10.2013 17:00 25,8 C 49 % 1013,5 hPa 0,0 l/m 0,0 km/h SW 14,3 C 25,8 C 0,0 km/h
26.10.2013 18:00 21,1 C 58 % 1013,3 hPa 0,0 l/m 0,6 km/h NO 12,5 C 21,1 C 0,4 km/h
26.10.2013 19:00 16,6 C 74 % 1013,4 hPa 0,0 l/m 0,0 km/h SO 11,9 C 16,6 C 0,0 km/h
26.10.2013 20:00 14,6 C 81 % 1013,4 hPa 0,0 l/m 0,0 km/h S-SO 11,4 C 14,6 C 0,0 km/h
26.10.2013 21:00 12,9 C 84 % 1013,0 hPa 0,0 l/m 0,0 km/h SO 10,3 C 12,9 C 0,0 km/h
26.10.2013 22:00 12,7 C 84 % 1012,6 hPa 0,0 l/m 0,0 km/h S-SO 10,1 C 12,7 C 0,0 km/h
26.10.2013 23:00 12,4 C 83 % 1012,3 hPa 0,0 l/m 0,0 km/h S-SO 9,6 C 12,4 C 0,0 km/h
27.10.2013 00:00 13,1 C 81 % 1012,7 hPa 0,0 l/m 5,8 km/h S-SO 9,9 C 13,1 C 3,2 km/h
27.10.2013 01:00 18,9 C 74 % 1013,1 hPa 0,0 l/m 16,2 km/h W 14,2 C 15,6 C 9,0 km/h
27.10.2013 02:00 17,8 C 75 % 1013,1 hPa 0,0 l/m 0,0 km/h S-SW 13,3 C 17,8 C 0,0 km/h
27.10.2013 03:00 15,0 C 83 % 1014,8 hPa 4,1 l/m 12,3 km/h SW 12,1 C 12,2 C 6,8 km/h
27.10.2013 04:00 13,7 C 82 % 1014,8 hPa 2,1 l/m 22,7 km/h S 10,7 C 7,4 C 12,6 km/h
27.10.2013 05:00 13,3 C 82 % 1013,4 hPa 1,6 l/m 7,1 km/h S-SW 10,3 C 12,9 C 4,0 km/h
27.10.2013 06:00 12,7 C 83 % 1013,2 hPa 1,6 l/m 4,5 km/h S-SW 9,9 C 12,7 C 2,5 km/h
27.10.2013 07:00 12,7 C 84 % 1012,8 hPa 0,0 l/m 1,3 km/h S-SW 10,1 C 12,7 C 0,7 km/h
27.10.2013 08:00 13,5 C 84 % 1012,6 hPa 0,0 l/m 0,0 km/h NO 10,8 C 13,5 C 0,0 km/h
27.10.2013 09:00 16,4 C 81 % 1011,9 hPa 0,0 l/m 0,0 km/h NW 13,1 C 16,4 C 0,0 km/h
27.10.2013 10:00 22,6 C 51 % 1011,8 hPa 0,0 l/m 23,3 km/h NW 11,9 C 19,1 C 13,0 km/h
27.10.2013 11:00 19,1 C 61 % 1011,3 hPa 0,0 l/m 20,7 km/h W 11,4 C 14,9 C 11,5 km/h
27.10.2013 12:00 20,6 C 54 % 1010,9 hPa 0,0 l/m 20,1 km/h W 11,0 C 17,0 C 11,2 km/h
27.10.2013 13:00 19,4 C 58 % 1010,9 hPa 0,0 l/m 22,7 km/h W 10,9 C 14,9 C 12,6 km/h
27.10.2013 14:00 17,8 C 65 % 1011,3 hPa 0,0 l/m 11,7 km/h W 11,1 C 15,6 C 6,5 km/h
27.10.2013 15:00 18,3 C 61 % 1010,6 hPa 0,0 l/m 11,0 km/h W 10,6 C 16,4 C 6,1 km/h
27.10.2013 16:00 21,2 C 50 % 1011,1 hPa 0,0 l/m 14,9 km/h N-NW 10,4 C 18,7 C 8,3 km/h
27.10.2013 17:00 17,5 C 60 % 1012,0 hPa 0,0 l/m 24,0 km/h W-NW 9,6 C 12,2 C 13,3 km/h
27.10.2013 18:00 16,0 C 68 % 1013,4 hPa 0,0 l/m 19,4 km/h SW 10,1 C 11,2 C 10,8 km/h
27.10.2013 19:00 15,5 C 73 % 1013,9 hPa 0,0 l/m 17,5 km/h W 10,7 C 11,1 C 9,7 km/h
27.10.2013 20:00 13,9 C 80 % 1014,1 hPa 0,0 l/m 0,0 km/h W-NW 10,5 C 13,9 C 0,0 km/h
27.10.2013 21:00 14,4 C 78 % 1013,4 hPa 0,0 l/m 6,5 km/h W 10,6 C 14,4 C 3,6 km/h
27.10.2013 22:00 15,1 C 74 % 1012,8 hPa 0,0 l/m 5,8 km/h W-SW 10,5 C 15,1 C 3,2 km/h
27.10.2013 23:00 15,7 C 70 % 1011,9 hPa 0,0 l/m 14,9 km/h W 10,2 C 12,1 C 8,3 km/h
Min-Datum _ 25.10.13 24.10.13 22.10.13 - 21.10.13 - 24.10.13 23.10.13 21.10.13
_ Min-Zeit 03:19 16:19 17:19 - 00:19 - 08:19 22:19 00:19
Minimum _ 6,2 C 43 % 1004,7 hPa - 0,0 km/h - 2,8 C 0,4 C 0,0 km/h
Max-Datum _ 22.10.13 22.10.13 24.10.13 27.10.13 23.10.13 - 21.10.13 22.10.13 23.10.13
_ Max-Zeit 16:19 11:19 11:19 03:19 22:19 - 16:19 16:19 22:19
Maximum _ 27,9 C 84 % 1017,4 hPa 4,1 l/m 33,7 km/h
S-SO
- 17,9 C 27,9 C 18,7 km/h
S-SO
Durchschnitt _ 14,8 C 72 % 1012,9 hPa #13,5 l/m 3,4 km/h SO 9,6 C 14,2 C 1,9 km/h
www.sexauwetter.de